Maripa, Brazil
Current Conditions -  °F | °C
As of 9:00 AM on Saturday 01 Nov 2014 (Local Time) from SBCA Reporting Station
Scattered Clouds Scattered Clouds  
Wind Chill: 75°   Ceiling: Unl
Heat Index: 75°   Visibility: 6mi
Dew Point: 64°   Wind: 23mph
Humidity: 69%   Direction: 40°NE
Pressure: 30"   Gusts: NA
Location:  24.42°S, 53.83°W
Report Text: SBCA 011100Z 04020KT 9999 FEW040 SCT100 24/18 Q1016
Loading
Personal Weather Stations






























Interactive Weather Map
Tropical Storm Tracking
New forecast layout! Learn more

10-Day Weather Forecast

Advertisements
Track Severe Weather on mobile